עמוד ראשי
METAR-TAF:

METAR-TAF

שדות תעופה :

שטוטגרט, גרמניה

נמל התעופה שטוטגרט

קו רוחב: 48-41N, קו אורך: 009-13E, גובה: 396מטר

תצפית מזג אוויר נוכחית

הדו"ח נערך לפני 13דקות, בשעה 23:20 UTC
רוח 9קשר מכיוון צפון/צפון-מזרח
טמפרטורת 7 צלסיוס
לחות 61%
לחץ 1020 hPa
ראות 10 קילומטר או יותר
ללא עננים שבסיסם נמוך מ 5000 רגל או קומולונימבוס

METAR: EDDS 252320Z 02009KT CAVOK 07/M00 Q1020

זמן: 00:33 (23:33 UTC)

תחזית

הדו"ח נערך לפני 6 שעות ו 33דקות, בשעה 17:00 UTC
תחזית בתוקף מ 25 ב 18 UTC עד 26 ב 18 UTC
רוח 12קשר מכיוון צפון-מזרח
ראות 10 קילומטר או יותר
ללא עננים שבסיסם נמוך מ 5000 רגל או קומולונימבוס
יעשה מ
25 ב 18 UTC עד 25 ב 20 UTC
רוח 7קשר מכיוון צפון/צפון-מזרח

TAF: EDDS 251700Z 2518/2618 05012KT CAVOK BECMG 2518/2520 03007KT

תצפיות ותחזיות מזג אוויר לגבי יותר מ- 4,000 שדות תעופה ברחבי העולם. דוחות METAR ו- TAF.

התחנות הזמינות מסומנות בנקודות צהובות ואדומות על גבי המפה.

העבר את העכבר לנקודה הצבעונית על מנת לראות את שם התחנה.

לאחר מכן, לחץ כדי לראות את תוכן ואת תחזיות מזג האוויר.

כדי לשנות את המפה: לחץ על הכפתורים הירוקים עם הפלוס השחור כדי להתקרב; על הכפתור הירוק עם המקף כדי להתרחק; או בחיצים הירוקים למפות סמוכות.


METAR-TAF: